Terminal Aerodrome Forecast
Issued by NWS

Home | Current Version | Previous Version | Graphics & Text | Print | Product List | Glossary On
Versions: 1 2 3 4 5 6 7 8 9 10 11 12 13 14
000
FTUS43 KBIS 281726
TAFJMS
TAF
KJMS 281726Z 2818/2918 25021G26KT P6SM SKC
     FM282100 25025G40KT P6SM SCT060
     FM290200 26020G33KT P6SM BKN060=

USA.gov is the U.S. government's official web portal to all federal, state and local government web resources and services.